Terminal Aerodrome Forecast
Issued by NWS Wilmington, NC

Home | Current Version | Previous Version | Text Only | Print | Product List | Glossary On
Versions: 1 2 3 4 5 6 7 8 9 10 11 12 13 14 15
321
FTUS42 KILM 290520
TAFFLO
TAF
KFLO 290520Z 2906/3006 23006KT P6SM SCT050
     FM290800 26003KT 5SM BR SCT004 BKN250
     FM291300 32008KT P6SM SCT050
     FM292300 VRB02KT P6SM SKC=

USA.gov is the U.S. government's official web portal to all federal, state and local government web resources and services.